Time;durP1;ratioP1;P1;durP2;ratioP2;P2;SDS_P1;SDS_P2;PMS_P1;PMS_P2;Temp;Humidity;BMP_temperature;BMP_pressure;BME280_temperature;BME280_humidity;BME280_pressure;Samples;Min_cycle;Max_cycle;Signal;HPM_P1;HPM_P2
2023/05/16 00:01:00;;;;;;;46.05;38.20;;;;;;;15.00;65.39;100377.84;4112290;28;20456;-61
2023/05/16 00:03:03;;;;;;;49.63;39.10;;;;;;;15.07;64.19;100373.44;4122228;28;20042;-61
2023/05/16 00:05:09;;;;;;;45.58;35.40;;;;;;;15.14;64.67;100369.91;4127236;28;20457;-61
2023/05/16 00:07:12;;;;;;;45.90;37.00;;;;;;;15.10;63.95;100368.19;4123196;28;20035;-60
2023/05/16 00:09:15;;;;;;;47.83;38.65;;;;;;;15.06;64.24;100376.97;4122662;28;20408;-61
2023/05/16 00:11:18;;;;;;;46.28;36.60;;;;;;;15.08;63.94;100365.56;4117350;28;20131;-60
2023/05/16 00:13:25;;;;;;;47.45;39.28;;;;;;;14.93;64.51;100363.91;4117196;28;20072;-60
2023/05/16 00:15:28;;;;;;;50.05;39.45;;;;;;;14.96;64.99;100369.13;4120678;28;20452;-60
2023/05/16 00:17:31;;;;;;;45.58;37.25;;;;;;;14.89;64.59;100374.41;4125533;28;20034;-60
2023/05/16 00:19:34;;;;;;;49.40;38.40;;;;;;;14.82;65.38;100376.19;4125134;28;20049;-61
2023/05/16 00:21:37;;;;;;;47.42;38.13;;;;;;;14.78;65.49;100372.72;4121541;28;20497;-61
2023/05/16 00:23:39;;;;;;;44.70;34.85;;;;;;;14.79;65.77;100368.34;4116131;28;20043;-61
2023/05/16 00:25:42;;;;;;;47.50;35.20;;;;;;;14.83;65.52;100380.56;4125056;28;20038;-61
2023/05/16 00:27:45;;;;;;;47.30;38.00;;;;;;;14.80;65.55;100364.88;4107590;28;20051;-61
2023/05/16 00:29:50;;;;;;;42.72;33.33;;;;;;;14.80;65.60;100364.88;4128336;28;20038;-60
2023/05/16 00:31:53;;;;;;;41.55;34.47;;;;;;;14.75;66.57;100366.66;4140979;28;20528;-61
2023/05/16 00:33:57;;;;;;;46.58;37.00;;;;;;;14.89;65.08;100375.28;4137824;28;20045;-60
2023/05/16 00:36:00;;;;;;;49.15;38.83;;;;;;;14.82;65.33;100366.59;4117746;28;20396;-60
2023/05/16 00:38:02;;;;;;;43.08;33.83;;;;;;;14.72;66.19;100370.13;4115975;28;20512;-60
2023/05/16 00:40:06;;;;;;;39.28;31.48;;;;;;;14.77;66.34;100367.50;4122387;28;20046;-60
2023/05/16 00:42:11;;;;;;;44.80;36.63;;;;;;;14.86;65.51;100369.19;4124993;28;20066;-60
2023/05/16 00:44:13;;;;;;;41.33;33.85;;;;;;;14.83;65.76;100370.06;4121472;28;20133;-60
2023/05/16 00:46:19;;;;;;;49.50;39.85;;;;;;;14.86;65.85;100363.97;4120575;28;20027;-60
2023/05/16 00:48:22;;;;;;;44.10;35.67;;;;;;;14.95;64.65;100364.81;4117059;28;20039;-60
2023/05/16 00:50:26;;;;;;;44.05;37.03;;;;;;;14.87;65.61;100366.56;4120931;28;20042;-60
2023/05/16 00:52:32;;;;;;;42.65;36.03;;;;;;;14.83;65.71;100367.47;4125650;28;20038;-60
2023/05/16 00:54:35;;;;;;;47.08;35.33;;;;;;;14.84;65.91;100363.97;4122516;28;20042;-60
2023/05/16 00:56:38;;;;;;;48.95;34.60;;;;;;;14.95;64.90;100367.41;4120171;28;20102;-60
2023/05/16 00:58:41;;;;;;;43.80;35.67;;;;;;;14.82;65.75;100368.31;4131987;28;20042;-60
2023/05/16 01:00:46;;;;;;;45.35;34.78;;;;;;;14.86;64.78;100364.81;4122896;28;20042;-60
2023/05/16 01:02:52;;;;;;;43.55;35.95;;;;;;;14.71;66.23;100371.00;4120828;28;20121;-60
2023/05/16 01:04:56;;;;;;;39.58;34.45;;;;;;;14.78;65.72;100371.88;4125914;28;20039;-60
2023/05/16 01:06:58;;;;;;;48.20;36.25;;;;;;;14.71;65.78;100370.16;4121251;28;20377;-60
2023/05/16 01:09:01;;;;;;;45.55;37.67;;;;;;;14.69;65.27;100366.66;4117760;28;20145;-60
2023/05/16 01:11:11;;;;;;;39.35;31.13;;;;;;;14.61;66.45;100375.41;4115061;28;20081;-59
2023/05/16 01:13:21;;;;;;;38.75;31.88;;;;;;;14.56;66.99;100379.75;4119605;28;20042;-59
2023/05/16 01:15:28;;;;;;;44.63;34.45;;;;;;;14.65;66.69;100374.53;4121394;28;20047;-60
2023/05/16 01:17:41;;;;;;;43.25;35.38;;;;;;;14.69;65.90;100377.13;4124071;28;20097;-59
2023/05/16 01:20:03;;;;;;;44.80;35.80;;;;;;;14.79;65.54;100376.19;4118852;28;20444;-60
2023/05/16 01:22:16;;;;;;;41.85;33.78;;;;;;;14.66;65.45;100368.41;4115535;28;20039;-61
2023/05/16 01:24:27;;;;;;;35.97;30.27;;;;;;;14.65;66.38;100371.03;4118271;28;20108;-60
2023/05/16 01:26:32;;;;;;;38.15;30.88;;;;;;;14.63;66.75;100376.28;4126118;28;20035;-60
2023/05/16 01:28:36;;;;;;;39.22;33.20;;;;;;;14.73;66.08;100371.84;4122721;28;20096;-60
2023/05/16 01:30:40;;;;;;;36.38;27.70;;;;;;;14.75;65.68;100374.50;4137402;28;20102;-60
2023/05/16 01:32:43;;;;;;;42.40;34.38;;;;;;;14.82;65.90;100377.06;4120703;28;20126;-60
2023/05/16 01:34:46;;;;;;;35.85;28.95;;;;;;;14.74;66.40;100380.59;4097744;28;20043;-60
2023/05/16 01:36:58;;;;;;;41.08;32.00;;;;;;;14.78;66.25;100382.34;4142311;28;20030;-60
2023/05/16 01:39:07;;;;;;;35.15;30.08;;;;;;;14.78;66.46;100377.09;4113890;28;20051;-60
2023/05/16 01:41:17;;;;;;;36.63;29.48;;;;;;;14.79;65.51;100377.09;4113945;28;20492;-60
2023/05/16 01:43:29;;;;;;;32.45;25.92;;;;;;;14.73;66.25;100384.94;4131004;28;20045;-60
2023/05/16 01:45:35;;;;;;;35.85;26.92;;;;;;;14.83;65.52;100380.56;4104779;28;20068;-59
2023/05/16 01:47:42;;;;;;;33.55;26.33;;;;;;;14.70;66.29;100394.56;4143106;28;20044;-59
2023/05/16 01:49:54;;;;;;;31.02;26.33;;;;;;;14.70;66.32;100390.19;4139429;28;20049;-60
2023/05/16 01:52:01;;;;;;;33.50;27.88;;;;;;;14.74;65.26;100389.31;4118759;28;20665;-60
2023/05/16 01:54:10;;;;;;;32.05;23.13;;;;;;;14.69;66.38;100390.19;4117752;28;20043;-59
2023/05/16 01:56:15;;;;;;;33.75;27.70;;;;;;;14.77;65.28;100385.81;4104985;28;20058;-59
2023/05/16 01:58:23;;;;;;;33.00;27.35;;;;;;;14.68;65.23;100384.09;4121514;28;20035;-59
2023/05/16 02:00:26;;;;;;;29.65;23.92;;;;;;;14.51;66.32;100388.50;4104608;28;20054;-59
2023/05/16 02:02:29;;;;;;;32.15;26.45;;;;;;;14.63;65.51;100389.38;4120530;28;20073;-60
2023/05/16 02:04:32;;;;;;;35.65;27.27;;;;;;;14.62;65.93;100387.63;4117394;28;20038;-59
2023/05/16 02:06:35;;;;;;;31.23;24.95;;;;;;;14.63;66.02;100391.97;4115285;28;20043;-60
2023/05/16 02:08:37;;;;;;;32.97;25.77;;;;;;;14.64;65.96;100390.22;4118644;28;20042;-60
2023/05/16 02:10:40;;;;;;;33.22;24.95;;;;;;;14.43;66.10;100394.63;4135398;28;20093;-60
2023/05/16 02:12:43;;;;;;;30.75;25.73;;;;;;;14.36;65.59;100389.41;4117048;28;20038;-60
2023/05/16 02:14:47;;;;;;;29.67;23.38;;;;;;;14.32;66.26;100386.81;4112840;28;20046;-60
2023/05/16 02:16:50;;;;;;;29.73;24.58;;;;;;;14.29;66.17;100392.06;4114409;28;20544;-60
2023/05/16 02:18:53;;;;;;;31.85;22.88;;;;;;;14.23;66.50;100389.44;4119810;28;20054;-60
2023/05/16 02:20:56;;;;;;;28.98;21.92;;;;;;;14.25;66.64;100387.69;4121507;28;20054;-60
2023/05/16 02:22:59;;;;;;;27.08;22.00;;;;;;;14.28;65.90;100387.69;4120800;28;20101;-59
2023/05/16 02:25:03;;;;;;;26.83;20.83;;;;;;;14.13;66.97;100387.69;4131171;28;20058;-59
2023/05/16 02:27:06;;;;;;;25.35;20.65;;;;;;;14.13;66.32;100382.47;4113999;28;20077;-59
2023/05/16 02:29:09;;;;;;;32.55;23.58;;;;;;;14.07;66.59;100385.09;4107105;28;20051;-59
2023/05/16 02:31:14;;;;;;;31.67;22.92;;;;;;;14.14;66.50;100384.22;4111586;28;20150;-59
2023/05/16 02:33:17;;;;;;;29.38;23.83;;;;;;;14.09;66.75;100386.84;4112645;28;20101;-60
2023/05/16 02:35:21;;;;;;;23.00;18.38;;;;;;;14.05;67.28;100390.34;4101618;28;20079;-60
2023/05/16 02:37:25;;;;;;;24.58;19.90;;;;;;;14.03;67.29;100386.88;4113398;28;20078;-60
2023/05/16 02:39:28;;;;;;;23.42;18.90;;;;;;;13.98;66.94;100385.13;4128707;28;20460;-60
2023/05/16 02:41:32;;;;;;;30.52;22.95;;;;;;;14.02;67.15;100389.44;4111849;28;20137;-61
2023/05/16 02:43:34;;;;;;;25.30;18.83;;;;;;;14.09;66.19;100391.19;4117433;28;20042;-59
2023/05/16 02:45:37;;;;;;;27.95;20.35;;;;;;;14.06;66.97;100396.44;4111921;28;20039;-59
2023/05/16 02:47:41;;;;;;;25.00;21.27;;;;;;;14.03;66.86;100396.44;4113716;28;20035;-59
2023/05/16 02:49:44;;;;;;;29.08;20.27;;;;;;;13.98;67.20;100392.97;4119729;28;20053;-59
2023/05/16 02:51:47;;;;;;;24.52;19.33;;;;;;;14.02;67.27;100395.56;4098950;28;20055;-59
2023/05/16 02:53:51;;;;;;;24.05;19.35;;;;;;;14.04;66.40;100398.19;4131231;28;20042;-59
2023/05/16 02:55:53;;;;;;;23.75;19.75;;;;;;;14.07;66.32;100392.94;4098835;28;20437;-60
2023/05/16 02:57:56;;;;;;;29.67;20.83;;;;;;;14.00;66.63;100401.66;4101746;28;20030;-60
2023/05/16 02:59:59;;;;;;;26.23;22.25;;;;;;;13.98;66.96;100399.06;4121252;28;20034;-59
2023/05/16 03:02:02;;;;;;;22.63;18.23;;;;;;;13.91;66.63;100400.78;4115471;28;20047;-59
2023/05/16 03:04:07;;;;;;;22.05;17.55;;;;;;;13.85;67.24;100411.25;4129239;28;20042;-59
2023/05/16 03:06:09;;;;;;;27.77;22.33;;;;;;;13.90;67.30;100412.13;4121180;28;20069;-59
2023/05/16 03:08:12;;;;;;;28.48;20.63;;;;;;;13.93;66.41;100398.16;4122962;28;20038;-59
2023/05/16 03:10:15;;;;;;;28.65;22.63;;;;;;;13.96;65.63;100404.28;4122148;28;20125;-59
2023/05/16 03:12:20;;;;;;;32.25;21.23;;;;;;;13.83;66.59;100407.78;4119585;28;20138;-59
2023/05/16 03:14:23;;;;;;;34.08;23.20;;;;;;;13.90;66.07;100406.00;4117400;28;20130;-58
2023/05/16 03:16:27;;;;;;;28.40;18.17;;;;;;;13.67;66.56;100406.00;4103287;28;20050;-60
2023/05/16 03:18:30;;;;;;;26.15;19.20;;;;;;;13.57;66.72;100408.63;4125712;28;20038;-59
2023/05/16 03:20:34;;;;;;;29.73;20.30;;;;;;;13.61;67.10;100414.75;4125029;28;20034;-59
2023/05/16 03:22:37;;;;;;;32.92;21.27;;;;;;;13.67;66.85;100408.63;4122981;28;20034;-60
2023/05/16 03:24:40;;;;;;;29.52;20.30;;;;;;;13.55;67.06;100415.59;4117185;28;20046;-60
2023/05/16 03:26:46;;;;;;;29.08;21.75;;;;;;;13.47;66.88;100413.84;4111342;28;20051;-60
2023/05/16 03:28:50;;;;;;;25.92;18.83;;;;;;;13.39;67.37;100416.41;4115909;28;20061;-60
2023/05/16 03:30:52;;;;;;;28.67;21.05;;;;;;;13.41;67.55;100422.53;4125633;28;20038;-59
2023/05/16 03:32:56;;;;;;;31.15;20.27;;;;;;;13.37;67.68;100423.41;4126114;28;20547;-60
2023/05/16 03:34:58;;;;;;;26.73;20.27;;;;;;;13.35;67.34;100414.69;4123526;28;20400;-60
2023/05/16 03:37:03;;;;;;;27.02;19.95;;;;;;;13.30;67.74;100419.00;4118827;28;20603;-60
2023/05/16 03:39:07;;;;;;;26.88;18.52;;;;;;;13.25;67.47;100422.47;4120279;28;20037;-59
2023/05/16 03:41:10;;;;;;;32.65;21.13;;;;;;;13.45;67.09;100421.69;4116141;28;20069;-59
2023/05/16 03:43:13;;;;;;;29.08;19.55;;;;;;;13.25;67.71;100430.28;4121935;28;20045;-59
2023/05/16 03:45:16;;;;;;;26.15;20.05;;;;;;;13.26;68.15;100439.00;4125187;28;20177;-59
2023/05/16 03:47:19;;;;;;;28.42;21.58;;;;;;;13.31;67.32;100436.41;4123787;28;20481;-60
2023/05/16 03:49:27;;;;;;;30.17;20.40;;;;;;;13.39;66.76;100432.97;4122267;28;20057;-59
2023/05/16 03:51:30;;;;;;;26.55;20.73;;;;;;;13.30;67.20;100438.13;4118626;28;20043;-59
2023/05/16 03:53:35;;;;;;;31.30;20.73;;;;;;;13.19;67.39;100432.88;4130094;28;20050;-60
2023/05/16 03:55:38;;;;;;;32.30;22.90;;;;;;;13.27;67.34;100438.13;4123860;28;20042;-60
2023/05/16 03:57:41;;;;;;;34.15;20.42;;;;;;;13.24;67.58;100435.50;4126639;28;20038;-59
2023/05/16 03:59:44;;;;;;;33.67;22.25;;;;;;;13.08;67.89;100431.97;4123487;28;20097;-60
2023/05/16 04:01:47;;;;;;;32.47;22.85;;;;;;;13.26;67.15;100437.25;4122296;28;20046;-59
2023/05/16 04:03:50;;;;;;;30.63;21.70;;;;;;;13.19;67.18;100443.34;4118650;28;20042;-59
2023/05/16 04:05:53;;;;;;;28.88;21.45;;;;;;;13.20;67.65;100447.69;4117978;28;20101;-59
2023/05/16 04:07:56;;;;;;;27.65;18.42;;;;;;;13.21;67.64;100446.81;4116279;28;20212;-59
2023/05/16 04:10:01;;;;;;;29.95;20.67;;;;;;;13.17;68.08;100450.31;4125445;28;20042;-59
2023/05/16 04:12:04;;;;;;;31.33;19.48;;;;;;;13.18;68.10;100453.78;4121639;28;20039;-60
2023/05/16 04:14:07;;;;;;;27.98;19.40;;;;;;;13.18;67.70;100448.56;4122946;28;20042;-59
2023/05/16 04:16:09;;;;;;;28.55;20.60;;;;;;;13.23;67.84;100455.53;4121830;28;20489;-60
2023/05/16 04:18:13;;;;;;;31.13;21.98;;;;;;;13.56;66.95;100453.03;4118478;28;20106;-60
2023/05/16 04:20:16;;;;;;;24.98;17.95;;;;;;;13.32;67.03;100453.84;4116448;28;20045;-59
2023/05/16 04:22:21;;;;;;;27.85;20.75;;;;;;;13.21;67.54;100457.25;4125285;28;20042;-60
2023/05/16 04:24:25;;;;;;;32.03;19.17;;;;;;;13.18;67.74;100454.63;4125716;28;20042;-60
2023/05/16 04:26:30;;;;;;;26.90;19.48;;;;;;;13.14;67.80;100459.84;4122941;28;20067;-60
2023/05/16 04:28:33;;;;;;;21.23;16.58;;;;;;;13.18;68.13;100462.47;4121791;28;20031;-60
2023/05/16 04:30:37;;;;;;;31.77;19.98;;;;;;;13.20;67.94;100462.47;4116812;28;20501;-60
2023/05/16 04:32:40;;;;;;;24.52;17.27;;;;;;;13.32;67.22;100469.50;4115629;28;20409;-60
2023/05/16 04:34:45;;;;;;;30.35;19.75;;;;;;;13.33;66.90;100464.28;4130422;28;20419;-60
2023/05/16 04:36:48;;;;;;;23.67;17.50;;;;;;;13.25;67.72;100465.97;4113325;28;20050;-60
2023/05/16 04:38:51;;;;;;;21.60;15.75;;;;;;;13.31;67.32;100472.97;4122549;28;20034;-60
2023/05/16 04:40:54;;;;;;;24.23;17.98;;;;;;;13.41;67.26;100467.78;4118579;28;20034;-60
2023/05/16 04:42:58;;;;;;;22.17;15.13;;;;;;;13.37;66.82;100463.41;4102512;28;20529;-60
2023/05/16 04:45:02;;;;;;;19.73;13.73;;;;;;;13.42;66.88;100469.53;4117610;28;20043;-60
2023/05/16 04:47:06;;;;;;;20.40;13.32;;;;;;;13.33;66.79;100464.28;4116410;28;20042;-60
2023/05/16 04:49:10;;;;;;;22.15;13.88;;;;;;;13.32;67.02;100478.19;4128145;28;20034;-60
2023/05/16 04:51:12;;;;;;;21.25;12.30;;;;;;;13.33;67.14;100479.03;4125550;28;20046;-59
2023/05/16 04:53:15;;;;;;;20.55;12.98;;;;;;;13.55;66.21;100477.41;4121740;28;20508;-60
2023/05/16 04:55:18;;;;;;;15.13;11.30;;;;;;;13.27;67.35;100483.41;4113656;28;20086;-59
2023/05/16 04:57:21;;;;;;;22.08;12.63;;;;;;;13.27;67.46;100482.50;4117981;28;20047;-60
2023/05/16 04:59:25;;;;;;;14.95;10.18;;;;;;;13.27;67.69;100493.84;4098849;28;20047;-59
2023/05/16 05:01:28;;;;;;;16.88;10.57;;;;;;;13.32;67.72;100488.63;4124980;28;20093;-59
2023/05/16 05:03:31;;;;;;;16.23;11.23;;;;;;;13.34;67.65;100499.97;4125305;28;20045;-60
2023/05/16 05:05:34;;;;;;;16.23;11.77;;;;;;;13.45;67.86;100502.63;4123441;28;20042;-60
2023/05/16 05:07:37;;;;;;;15.55;10.68;;;;;;;13.40;67.65;100494.78;4118062;28;20070;-60
2023/05/16 05:09:40;;;;;;;13.27;9.52;;;;;;;13.50;67.27;100503.50;4107275;28;20047;-60
2023/05/16 05:11:43;;;;;;;12.07;9.05;;;;;;;13.49;67.04;100509.63;4101221;28;20065;-59
2023/05/16 05:13:46;;;;;;;13.85;9.82;;;;;;;13.48;67.24;100505.25;4109620;28;20101;-59
2023/05/16 05:15:51;;;;;;;16.83;9.27;;;;;;;13.53;67.22;100506.13;4106666;28;20039;-59
2023/05/16 05:17:54;;;;;;;14.10;9.65;;;;;;;13.44;66.99;100500.88;4119062;28;20041;-59
2023/05/16 05:19:56;;;;;;;15.10;8.88;;;;;;;13.42;67.43;100507.84;4112252;28;21268;-59
2023/05/16 05:22:00;;;;;;;10.77;8.02;;;;;;;13.47;67.37;100516.56;4115809;28;20034;-59
2023/05/16 05:24:04;;;;;;;10.75;7.50;;;;;;;13.49;66.94;100517.47;4108041;28;20074;-59
2023/05/16 05:26:07;;;;;;;9.95;6.40;;;;;;;13.51;66.97;100518.31;4119111;28;20041;-59
2023/05/16 05:28:10;;;;;;;10.50;6.20;;;;;;;13.78;65.82;100514.91;4123259;28;20119;-59
2023/05/16 05:30:13;;;;;;;10.10;5.85;;;;;;;13.81;65.67;100511.41;4118104;28;20493;-59
2023/05/16 05:32:17;;;;;;;9.48;5.18;;;;;;;13.76;65.36;100519.25;4126857;23;20051;-63
2023/05/16 05:34:20;;;;;;;11.13;4.70;;;;;;;13.63;66.05;100512.25;4143646;28;20485;-63
2023/05/16 05:36:22;;;;;;;8.88;4.85;;;;;;;13.69;65.87;100514.88;4134014;28;20073;-64
2023/05/16 05:38:25;;;;;;;7.57;4.50;;;;;;;13.72;65.45;100521.84;4152281;28;20412;-64
2023/05/16 05:40:28;;;;;;;5.68;3.63;;;;;;;13.65;65.50;100512.25;4132355;28;20038;-62
2023/05/16 05:42:31;;;;;;;5.40;3.28;;;;;;;13.61;66.27;100516.63;4125549;28;20039;-61
2023/05/16 05:44:34;;;;;;;5.90;2.80;;;;;;;13.75;64.98;100524.47;4142350;28;20137;-63
2023/05/16 05:46:37;;;;;;;7.35;3.58;;;;;;;13.67;65.91;100520.97;4145766;28;20120;-64
2023/05/16 05:48:41;;;;;;;5.63;3.58;;;;;;;13.67;65.58;100532.31;4141322;28;20050;-62
2023/05/16 05:50:44;;;;;;;5.80;3.10;;;;;;;13.75;64.78;100533.16;4129498;28;20043;-63
2023/05/16 05:52:47;;;;;;;6.00;2.58;;;;;;;13.57;65.37;100530.53;4139604;28;20386;-63
2023/05/16 05:54:50;;;;;;;3.30;2.58;;;;;;;13.66;65.50;100533.16;4154448;28;20042;-63
2023/05/16 05:56:52;;;;;;;3.47;2.58;;;;;;;13.56;65.46;100529.63;4132449;28;20034;-63
2023/05/16 05:58:55;;;;;;;3.90;2.42;;;;;;;13.70;65.05;100531.44;4148331;28;20039;-63
2023/05/16 06:00:58;;;;;;;4.40;2.65;;;;;;;13.61;65.51;100538.38;4148499;28;20117;-63
2023/05/16 06:03:01;;;;;;;3.38;2.28;;;;;;;13.60;66.26;100531.41;4158064;28;20037;-63
2023/05/16 06:05:06;;;;;;;4.18;2.75;;;;;;;13.83;65.25;100535.81;4156867;28;20034;-64
2023/05/16 06:07:09;;;;;;;4.07;2.40;;;;;;;13.79;65.45;100537.53;4151912;28;20041;-63
2023/05/16 06:09:12;;;;;;;3.22;1.95;;;;;;;13.74;65.49;100538.38;4117402;28;20508;-63
2023/05/16 06:11:15;;;;;;;7.63;2.78;;;;;;;13.76;65.53;100534.06;4115105;28;20046;-63
2023/05/16 06:13:18;;;;;;;4.68;2.58;;;;;;;13.84;65.56;100542.78;4140799;28;20411;-63
2023/05/16 06:15:21;;;;;;;3.75;2.40;;;;;;;13.89;64.78;100533.22;4154155;28;20104;-63
2023/05/16 06:17:24;;;;;;;7.07;2.67;;;;;;;14.05;64.49;100539.34;4151932;28;20576;-64
2023/05/16 06:19:27;;;;;;;5.90;2.47;;;;;;;14.13;64.39;100534.09;4135297;28;20049;-63
2023/05/16 06:21:32;;;;;;;4.75;2.58;;;;;;;14.07;64.11;100540.19;4151899;28;20133;-63
2023/05/16 06:23:35;;;;;;;6.00;2.97;;;;;;;14.22;63.83;100539.38;4127804;28;20074;-63
2023/05/16 06:25:39;;;;;;;4.80;3.00;;;;;;;14.17;63.08;100546.31;4115976;28;20043;-63
2023/05/16 06:27:42;;;;;;;5.00;2.60;;;;;;;14.15;63.72;100548.06;4134402;28;20085;-63
2023/05/16 06:29:45;;;;;;;7.88;3.40;;;;;;;14.07;63.05;100541.94;4155542;28;20095;-63
2023/05/16 06:31:48;;;;;;;5.10;2.70;;;;;;;14.00;63.80;100548.03;4153713;28;20029;-63
2023/05/16 06:33:51;;;;;;;5.70;3.08;;;;;;;14.18;63.10;100548.06;4132995;28;20043;-64
2023/05/16 06:35:54;;;;;;;6.80;3.28;;;;;;;14.16;62.99;100549.78;4155450;28;20042;-63
2023/05/16 06:37:58;;;;;;;5.85;3.10;;;;;;;14.19;62.14;100549.78;4143865;28;20605;-63
2023/05/16 06:40:01;;;;;;;9.48;3.13;;;;;;;14.11;63.20;100547.19;4146772;28;20506;-67
2023/05/16 06:42:04;;;;;;;5.53;2.55;;;;;;;14.09;63.35;100555.88;4152662;28;20037;-64
2023/05/16 06:44:07;;;;;;;6.03;2.85;;;;;;;13.99;63.07;100555.03;4130699;28;20066;-63
2023/05/16 06:46:10;;;;;;;4.40;2.50;;;;;;;14.03;63.24;100556.78;4150211;28;20037;-69
2023/05/16 06:48:14;;;;;;;4.90;2.40;;;;;;;14.02;63.85;100565.47;4154638;28;20049;-66
2023/05/16 06:50:17;;;;;;;6.45;2.47;;;;;;;14.16;62.30;100551.53;4149083;28;20381;-63
2023/05/16 06:52:21;;;;;;;5.30;2.40;;;;;;;14.07;62.99;100555.03;4143254;28;20041;-63
2023/05/16 06:54:25;;;;;;;5.20;2.45;;;;;;;14.02;63.44;100559.34;4146943;28;20515;-63
2023/05/16 06:56:28;;;;;;;4.00;2.10;;;;;;;14.00;63.29;100558.50;4142401;28;20073;-63
2023/05/16 06:58:31;;;;;;;3.58;2.10;;;;;;;14.01;63.51;100561.09;4147832;28;20042;-63
2023/05/16 07:00:34;;;;;;;3.47;2.28;;;;;;;14.08;62.89;100567.22;4145125;28;20072;-63
2023/05/16 07:02:37;;;;;;;4.25;2.33;;;;;;;14.03;62.23;100574.19;4134901;28;20042;-63
2023/05/16 07:04:40;;;;;;;3.50;2.28;;;;;;;13.99;62.97;100575.03;4158937;28;20498;-63
2023/05/16 07:06:43;;;;;;;4.07;2.08;;;;;;;14.12;62.46;100567.22;4133970;28;20121;-63
2023/05/16 07:08:46;;;;;;;2.10;1.65;;;;;;;14.10;63.21;100570.72;4151290;28;20054;-63
2023/05/16 07:10:50;;;;;;;6.65;1.95;;;;;;;14.16;62.62;100581.16;4134370;28;20030;-63
2023/05/16 07:12:54;;;;;;;3.05;1.45;;;;;;;14.41;60.45;100575.97;4154189;28;20179;-63
2023/05/16 07:14:57;;;;;;;1.38;1.27;;;;;;;14.31;61.34;100581.19;4160727;28;20475;-63
2023/05/16 07:17:00;;;;;;;1.90;1.30;;;;;;;14.46;61.20;100582.09;4156184;28;20040;-63
2023/05/16 07:19:03;;;;;;;4.57;2.42;;;;;;;14.55;61.06;100586.44;4152090;28;20096;-64
2023/05/16 07:21:06;;;;;;;4.88;1.30;;;;;;;14.58;59.85;100587.28;4117426;28;20432;-63
2023/05/16 07:23:09;;;;;;;2.50;1.45;;;;;;;14.55;60.74;100583.81;4150324;28;20053;-63
2023/05/16 07:25:13;;;;;;;17.05;1.73;;;;;;;14.77;59.77;100579.47;4157810;28;20042;-63
2023/05/16 07:27:17;;;;;;;2.42;1.30;;;;;;;14.53;60.55;100578.59;4157158;28;20049;-63
2023/05/16 07:29:22;;;;;;;2.15;1.15;;;;;;;14.42;59.06;100589.03;4153981;28;20033;-64
2023/05/16 07:31:25;;;;;;;3.05;1.00;;;;;;;14.32;59.52;100589.91;4134086;28;20125;-63
2023/05/16 07:33:28;;;;;;;4.38;1.30;;;;;;;14.36;59.99;100593.41;4153924;28;20112;-63
2023/05/16 07:35:31;;;;;;;2.53;1.17;;;;;;;14.47;59.39;100605.63;4160425;28;20063;-63
2023/05/16 07:37:34;;;;;;;2.30;1.10;;;;;;;14.40;58.37;100600.41;4158617;28;20037;-63
2023/05/16 07:39:37;;;;;;;2.50;1.50;;;;;;;14.29;60.11;100603.88;4153923;28;20499;-63
2023/05/16 07:41:40;;;;;;;4.50;1.50;;;;;;;14.32;59.40;100613.44;4133841;28;20401;-64
2023/05/16 07:43:44;;;;;;;4.75;1.27;;;;;;;14.20;59.63;100609.06;4118113;28;20330;-67
2023/05/16 07:45:47;;;;;;;3.15;1.50;;;;;;;14.17;59.06;100601.22;4146450;28;20049;-63
2023/05/16 07:47:50;;;;;;;2.83;1.42;;;;;;;14.19;59.29;100614.28;4150730;28;20049;-61
2023/05/16 07:49:53;;;;;;;1.00;0.90;;;;;;;14.07;60.03;100613.41;4124859;28;20545;-62
2023/05/16 07:51:56;;;;;;;4.35;1.30;;;;;;;13.95;60.23;100621.22;4141442;28;20050;-62
2023/05/16 07:53:59;;;;;;;1.80;1.10;;;;;;;13.93;59.69;100630.78;4140285;28;20072;-63
2023/05/16 07:56:02;;;;;;;5.10;1.17;;;;;;;13.75;60.79;100636.81;4145432;28;20492;-62
2023/05/16 07:58:05;;;;;;;2.97;1.42;;;;;;;13.71;61.06;100635.94;4148619;28;20042;-62
2023/05/16 08:00:15;;;;;;;2.03;1.10;;;;;;;13.72;61.12;100636.81;4148478;28;20050;-65
2023/05/16 08:02:18;;;;;;;4.80;0.90;;;;;;;13.78;61.38;100635.13;4146581;28;20057;-63
2023/05/16 08:04:30;;;;;;;3.58;1.52;;;;;;;13.65;62.10;100635.91;4131672;28;20042;-64
2023/05/16 08:06:34;;;;;;;2.45;1.20;;;;;;;13.61;62.28;100632.41;4147883;28;20069;-65
2023/05/16 08:08:37;;;;;;;2.90;1.30;;;;;;;13.58;62.08;100640.25;4140419;28;20045;-64
2023/05/16 08:10:40;;;;;;;1.98;1.30;;;;;;;13.68;62.09;100642.88;4148155;28;20038;-64
2023/05/16 08:12:43;;;;;;;3.28;1.10;;;;;;;13.72;61.14;100647.25;4148110;28;20139;-63
2023/05/16 08:14:45;;;;;;;2.20;1.55;;;;;;;13.53;62.64;100654.16;4148313;28;20037;-64
2023/05/16 08:16:50;;;;;;;3.92;1.48;;;;;;;13.60;62.34;100659.41;4148691;28;20054;-65
2023/05/16 08:18:53;;;;;;;2.22;1.60;;;;;;;13.55;63.02;100655.91;4147747;28;20495;-62
2023/05/16 08:20:56;;;;;;;4.18;1.30;;;;;;;13.59;62.81;100652.44;4148280;28;20072;-62
2023/05/16 08:22:59;;;;;;;2.70;1.40;;;;;;;13.44;63.22;100655.84;4143900;28;20046;-62
2023/05/16 08:25:02;;;;;;;3.20;1.83;;;;;;;13.37;63.86;100661.03;4131934;28;20088;-64
2023/05/16 08:27:05;;;;;;;6.90;1.70;;;;;;;13.43;64.04;100656.72;4130813;28;20149;-63
2023/05/16 08:29:08;;;;;;;4.80;1.67;;;;;;;13.36;63.78;100659.25;4130793;28;20050;-63
2023/05/16 08:31:11;;;;;;;3.42;1.30;;;;;;;13.26;64.55;100664.41;4147387;28;20034;-63
2023/05/16 08:33:16;;;;;;;3.60;1.52;;;;;;;13.23;64.49;100655.69;4124721;28;20106;-63
2023/05/16 08:35:19;;;;;;;;;;;;;;;13.17;65.10;100651.31;4118501;28;20042;-63
2023/05/16 08:37:22;;;;;;;3.33;1.52;;;;;;;13.35;64.74;100650.56;4148163;28;19926;-63
2023/05/16 08:39:25;;;;;;;3.20;1.63;;;;;;;13.44;64.45;100658.44;4146813;28;20046;-63
2023/05/16 08:41:28;;;;;;;4.28;1.60;;;;;;;13.25;64.69;100656.56;4148148;28;20484;-63
2023/05/16 08:43:32;;;;;;;3.15;1.70;;;;;;;13.34;65.13;100661.88;4130029;28;20073;-63
2023/05/16 08:45:35;;;;;;;2.25;1.50;;;;;;;13.43;64.25;100661.03;4131633;28;20038;-63
2023/05/16 08:47:40;;;;;;;4.25;1.52;;;;;;;13.46;64.42;100661.06;4148081;28;20077;-63
2023/05/16 08:49:47;;;;;;;2.15;1.48;;;;;;;13.60;64.05;100664.63;4126747;28;20039;-63
2023/05/16 08:51:55;;;;;;;1.17;1.08;;;;;;;13.63;63.65;100662.91;4128160;28;20071;-66
2023/05/16 08:54:03;;;;;;;4.28;1.48;;;;;;;13.55;64.24;100666.34;4137491;28;20496;-63
2023/05/16 08:56:08;;;;;;;4.30;1.23;;;;;;;13.80;63.86;100669.09;4142925;28;20095;-66
2023/05/16 08:58:12;;;;;;;5.47;1.60;;;;;;;13.89;62.83;100661.28;4137278;28;20514;-66
2023/05/16 09:00:16;;;;;;;2.05;1.38;;;;;;;13.92;62.69;100671.72;4142339;28;20404;-66
2023/05/16 09:02:19;;;;;;;1.65;1.23;;;;;;;13.97;63.04;100663.91;4141105;28;20556;-66
2023/05/16 09:04:24;;;;;;;2.45;1.13;;;;;;;14.05;62.87;100666.56;4126680;28;20536;-66
2023/05/16 09:06:29;;;;;;;3.05;1.08;;;;;;;14.08;62.28;100661.34;4120025;28;20090;-66
2023/05/16 09:08:32;;;;;;;1.65;1.00;;;;;;;14.16;61.40;100659.59;4146126;28;20052;-65
2023/05/16 09:10:35;;;;;;;2.28;1.05;;;;;;;14.04;61.37;100659.59;4121615;28;20528;-65
2023/05/16 09:12:39;;;;;;;4.63;1.30;;;;;;;14.10;61.17;100670.91;4140725;28;20048;-65
2023/05/16 09:14:42;;;;;;;9.25;1.20;;;;;;;14.03;60.93;100658.72;4117298;28;20054;-66
2023/05/16 09:16:45;;;;;;;2.35;1.08;;;;;;;13.90;61.01;100668.25;4129967;28;20034;-66
2023/05/16 09:18:55;;;;;;;3.28;0.80;;;;;;;13.83;61.75;100666.47;4147536;28;20046;-66
2023/05/16 09:21:00;;;;;;;4.15;0.95;;;;;;;13.91;61.97;100664.75;4147669;28;20038;-66
2023/05/16 09:23:04;;;;;;;3.55;0.98;;;;;;;14.06;59.89;100668.28;4147201;28;20137;-66
2023/05/16 09:25:08;;;;;;;2.20;1.10;;;;;;;14.17;59.21;100665.72;4133537;28;20042;-66
2023/05/16 09:27:31;;;;;;;1.92;0.82;;;;;;;13.99;60.23;100671.75;4144992;28;20038;-67
2023/05/16 09:29:34;;;;;;;2.63;0.80;;;;;;;13.96;59.72;100678.72;4130021;28;20038;-67